createdAt,value
2022-11-05T00:02:46.551Z,99781.16
2022-11-05T00:08:09.358Z,99785.22
2022-11-05T00:13:29.853Z,99789.75
2022-11-05T00:18:31.471Z,99785.38
2022-11-05T00:23:51.654Z,99791.75
2022-11-05T00:28:53.235Z,99796.97
2022-11-05T00:33:54.861Z,99803.19
2022-11-05T00:38:56.476Z,99801.13
2022-11-05T00:44:16.878Z,99802.81
2022-11-05T00:49:30.221Z,99809.03
2022-11-05T00:54:31.807Z,99830.25
2022-11-05T00:59:33.403Z,99827.56
2022-11-05T01:04:35.069Z,99825.19
2022-11-05T01:09:36.675Z,99835.09
2022-11-05T01:14:38.255Z,99843.00
2022-11-05T01:19:39.861Z,99832.94
2022-11-05T01:24:41.633Z,99836.94
2022-11-05T01:29:43.280Z,99844.00
2022-11-05T01:34:46.463Z,99854.59
2022-11-05T01:39:48.039Z,99866.06
2022-11-05T01:44:54.693Z,99870.59
2022-11-05T01:49:59.496Z,99876.13
2022-11-05T01:55:02.368Z,99891.72
2022-11-05T02:00:04.881Z,99904.44
2022-11-05T02:05:15.200Z,99900.16
2022-11-05T02:10:20.614Z,99900.16
2022-11-05T02:15:51.981Z,99893.94
2022-11-05T02:21:06.781Z,99897.34
2022-11-05T02:26:35.242Z,99899.06
2022-11-05T02:32:19.480Z,99925.00
2022-11-05T02:37:41.516Z,99927.38
2022-11-05T02:42:47.409Z,99925.69
2022-11-05T02:48:15.195Z,99928.38
2022-11-05T02:53:27.844Z,99931.06
2022-11-05T02:58:29.500Z,99937.28
2022-11-05T03:03:35.015Z,99941.69
2022-11-05T03:08:55.161Z,99955.13
2022-11-05T03:14:10.878Z,99966.03
2022-11-05T03:19:55.404Z,99955.53
2022-11-05T03:25:01.813Z,99966.19
2022-11-05T03:30:05.498Z,99963.50
2022-11-05T03:35:40.359Z,99969.56
2022-11-05T03:40:42.791Z,99974.78
2022-11-05T03:45:47.897Z,99974.66
2022-11-05T03:50:55.943Z,99981.19
2022-11-05T03:56:02.065Z,99989.94
2022-11-05T04:01:04.156Z,100002.25
2022-11-05T04:06:26.008Z,100007.47
2022-11-05T04:11:46.103Z,100013.00
2022-11-05T04:17:06.250Z,100013.16
2022-11-05T04:22:26.043Z,100031.28
2022-11-05T04:27:27.659Z,100043.75
2022-11-05T04:32:29.255Z,100048.41
2022-11-05T04:37:30.870Z,100045.03
2022-11-05T04:42:32.462Z,100053.78
2022-11-05T04:47:34.167Z,100062.00
2022-11-05T04:52:35.758Z,100070.31
2022-11-05T04:57:37.656Z,100069.47
2022-11-05T05:02:39.293Z,100058.84
2022-11-05T05:07:41.957Z,100064.22
2022-11-05T05:12:43.856Z,100074.13
2022-11-05T05:17:51.196Z,100077.81
2022-11-05T05:22:53.968Z,100079.81
2022-11-05T05:27:58.813Z,100089.88
2022-11-05T05:33:04.059Z,100106.44
2022-11-05T05:38:05.686Z,100107.72
2022-11-05T05:43:07.387Z,100117.91
2022-11-05T05:48:09.018Z,100122.00
2022-11-05T05:53:10.825Z,100128.38
2022-11-05T05:58:12.601Z,100131.78
2022-11-05T06:03:14.707Z,100137.00
2022-11-05T06:08:16.450Z,100140.69
2022-11-05T06:13:18.040Z,100137.00
2022-11-05T06:18:20.074Z,100143.25
2022-11-05T06:23:22.051Z,100151.16
2022-11-05T06:28:23.664Z,100152.00
2022-11-05T06:33:26.260Z,100171.41
2022-11-05T06:38:29.430Z,100174.22
2022-11-05T06:43:31.205Z,100186.69
2022-11-05T06:48:33.079Z,100204.66
2022-11-05T06:53:35.143Z,100215.47
2022-11-05T06:58:36.881Z,100220.44
2022-11-05T07:03:38.697Z,100224.38
2022-11-05T07:08:43.478Z,100233.59
2022-11-05T07:13:45.168Z,100250.16
2022-11-05T07:18:46.779Z,100252.97
2022-11-05T07:23:48.708Z,100259.06
2022-11-05T07:28:50.350Z,100280.88
2022-11-05T07:33:51.967Z,100289.34
2022-11-05T07:38:58.964Z,100290.22
2022-11-05T07:44:03.319Z,100297.00
2022-11-05T07:49:05.057Z,100304.94
2022-11-05T07:54:06.653Z,100310.50
2022-11-05T07:59:08.343Z,100311.47
2022-11-05T08:04:09.976Z,100325.06
2022-11-05T08:09:11.582Z,100329.84
2022-11-05T08:14:13.378Z,100323.19
2022-11-05T08:19:15.028Z,100332.09
2022-11-05T08:24:18.359Z,100341.56
2022-11-05T08:29:20.072Z,100334.78
2022-11-05T08:34:21.740Z,100347.09
2022-11-05T08:39:23.361Z,100348.66
2022-11-05T08:44:25.118Z,100346.22
2022-11-05T08:49:26.768Z,100362.03
2022-11-05T08:54:28.548Z,100368.97
2022-11-05T08:59:31.433Z,100380.47
2022-11-05T09:04:33.161Z,100375.06
2022-11-05T09:09:34.756Z,100379.91
2022-11-05T09:14:36.433Z,100385.50
2022-11-05T09:19:39.999Z,100375.53
2022-11-05T09:24:43.187Z,100385.19
2022-11-05T09:29:44.880Z,100384.06
2022-11-05T09:34:48.514Z,100390.81
2022-11-05T09:39:50.095Z,100390.00
2022-11-05T09:44:59.364Z,100392.84
2022-11-05T09:50:03.651Z,100395.09
2022-11-05T09:55:25.534Z,100399.94
2022-11-05T10:00:28.126Z,100404.88
2022-11-05T10:05:29.892Z,100402.22
2022-11-05T10:10:42.190Z,100395.47
2022-11-05T10:15:49.744Z,100413.41
2022-11-05T10:20:51.439Z,100416.78
2022-11-05T10:26:05.716Z,100418.22
2022-11-05T10:31:11.554Z,100429.41
2022-11-05T10:36:34.328Z,100431.50
2022-11-05T10:42:07.478Z,100424.41
2022-11-05T10:47:17.167Z,100428.59
2022-11-05T10:52:22.881Z,100424.28
2022-11-05T10:57:37.021Z,100433.22
2022-11-05T11:02:41.359Z,100433.28
2022-11-05T11:07:43.079Z,100436.03
2022-11-05T11:12:45.397Z,100436.41
2022-11-05T11:17:47.654Z,100438.78
2022-11-05T11:23:12.609Z,100447.19
2022-11-05T11:41:31.603Z,100451.09
2022-11-05T11:46:34.198Z,100449.34
2022-11-05T11:51:49.668Z,100454.44
2022-11-05T11:56:51.702Z,100451.72
2022-11-05T12:02:28.444Z,100451.44
2022-11-05T12:07:30.020Z,100455.97
2022-11-05T12:12:50.877Z,100448.47
2022-11-05T12:18:01.484Z,100452.09
2022-11-05T12:23:24.794Z,100450.41
2022-11-05T12:28:31.900Z,100451.41
2022-11-05T12:33:55.188Z,100447.53
2022-11-05T12:39:13.249Z,100449.56
2022-11-05T12:44:36.818Z,100466.38
2022-11-05T12:49:44.427Z,100464.22
2022-11-05T12:54:58.880Z,100467.31
2022-11-05T13:00:20.350Z,100470.34
2022-11-05T13:05:36.983Z,100457.13
2022-11-05T13:10:46.454Z,100460.91
2022-11-05T13:15:51.922Z,100461.22
2022-11-05T13:20:54.608Z,100467.00
2022-11-05T13:26:02.462Z,100467.09
2022-11-05T13:31:06.538Z,100471.50
2022-11-05T13:36:33.319Z,100477.19
2022-11-05T13:41:50.140Z,100481.94
2022-11-05T13:47:05.157Z,100491.28
2022-11-05T13:52:09.745Z,100506.19
2022-11-05T13:57:11.325Z,100497.59
2022-11-05T14:02:17.734Z,100502.75
2022-11-05T14:07:25.082Z,100506.59
2022-11-05T14:12:33.309Z,100505.91
2022-11-05T14:17:54.587Z,100514.84
2022-11-05T14:23:23.091Z,100513.50
2022-11-05T14:28:33.916Z,100511.41
2022-11-05T14:33:39.306Z,100510.00
2022-11-05T14:38:56.856Z,100509.63
2022-11-05T14:44:05.897Z,100519.97
2022-11-05T14:49:17.504Z,100522.97
2022-11-05T14:54:25.635Z,100522.84
2022-11-05T14:59:28.323Z,100526.69
2022-11-05T15:04:35.887Z,100534.06
2022-11-05T15:09:44.969Z,100542.53
2022-11-05T15:15:21.204Z,100544.06
2022-11-05T15:20:40.620Z,100549.25
2022-11-05T15:25:53.569Z,100558.53
2022-11-05T15:30:59.811Z,100546.88
2022-11-05T15:36:19.717Z,100567.84
2022-11-05T15:41:23.869Z,100561.25
2022-11-05T15:46:28.221Z,100562.34
2022-11-05T15:51:29.992Z,100569.69
2022-11-05T15:56:39.907Z,100573.91
2022-11-05T16:01:57.078Z,100572.72
2022-11-05T16:07:06.107Z,100577.66
2022-11-05T16:12:14.053Z,100583.75
2022-11-05T16:17:21.444Z,100584.31
2022-11-05T16:22:23.416Z,100579.84
2022-11-05T16:27:25.112Z,100592.06
2022-11-05T16:32:31.160Z,100596.53
2022-11-05T16:37:41.128Z,100605.09
2022-11-05T16:42:43.367Z,100600.94
2022-11-05T16:47:45.945Z,100609.53
2022-11-05T16:52:47.943Z,100612.94
2022-11-05T16:57:52.655Z,100610.03
2022-11-05T17:02:54.705Z,100622.97
2022-11-05T17:07:56.779Z,100616.78
2022-11-05T17:12:58.465Z,100623.72
2022-11-05T17:18:00.093Z,100625.09
2022-11-05T17:23:02.266Z,100627.53
2022-11-05T17:28:04.553Z,100638.03
2022-11-05T17:33:06.273Z,100637.50
2022-11-05T17:38:09.270Z,100634.81
2022-11-05T17:43:11.262Z,100646.16
2022-11-05T17:48:14.076Z,100649.56
2022-11-05T17:53:18.018Z,100655.16
2022-11-05T17:58:19.633Z,100667.59
2022-11-05T18:03:21.219Z,100666.97
2022-11-05T18:08:22.851Z,100676.00
2022-11-05T18:13:24.520Z,100672.53
2022-11-05T18:18:26.167Z,100678.97
2022-11-05T18:23:27.832Z,100688.41
2022-11-05T18:28:32.067Z,100699.84
2022-11-05T18:33:33.920Z,100696.31
2022-11-05T18:38:35.509Z,100697.31
2022-11-05T18:43:37.096Z,100696.94
2022-11-05T18:48:39.101Z,100709.72
2022-11-05T18:53:41.301Z,100702.41
2022-11-05T18:58:43.431Z,100703.16
2022-11-05T19:03:45.206Z,100712.91
2022-11-05T19:08:47.399Z,100708.63
2022-11-05T19:13:49.314Z,100705.34
2022-11-05T19:18:51.334Z,100710.75
2022-11-05T19:23:53.512Z,100708.19
2022-11-05T19:28:55.257Z,100713.38
2022-11-05T19:33:56.946Z,100716.81
2022-11-05T19:39:01.335Z,100713.38
2022-11-05T19:44:03.155Z,100720.06
2022-11-05T19:49:04.730Z,100720.75
2022-11-05T19:54:06.606Z,100724.69
2022-11-05T19:59:08.234Z,100728.97
2022-11-05T20:04:11.884Z,100733.38
2022-11-05T20:09:23.557Z,100737.47
2022-11-05T20:14:26.213Z,100740.38
2022-11-05T20:19:27.841Z,100736.31
2022-11-05T20:24:29.549Z,100746.59
2022-11-05T20:29:35.703Z,100754.22
2022-11-05T20:34:37.972Z,100764.75
2022-11-05T20:39:39.695Z,100757.28
2022-11-05T20:44:41.394Z,100766.19
2022-11-05T20:49:43.029Z,100775.50
2022-11-05T20:54:44.659Z,100775.16
2022-11-05T20:59:46.296Z,100770.13
2022-11-05T21:04:47.960Z,100778.06
2022-11-05T21:09:49.627Z,100765.00
2022-11-05T21:14:52.289Z,100758.16
2022-11-05T21:19:53.935Z,100754.84
2022-11-05T21:24:56.791Z,100748.94
2022-11-05T21:29:58.378Z,100762.13
2022-11-05T21:35:00.144Z,100761.91
2022-11-05T21:40:01.891Z,100774.63
2022-11-05T21:45:03.744Z,100767.00
2022-11-05T21:50:05.742Z,100775.94
2022-11-05T21:55:26.182Z,100781.47
2022-11-05T22:00:27.805Z,100771.31
2022-11-05T22:05:30.655Z,100774.22
2022-11-05T22:10:32.376Z,100768.41
2022-11-05T22:15:36.446Z,100762.06
2022-11-05T22:20:39.768Z,100757.44
2022-11-05T22:25:41.385Z,100765.19
2022-11-05T22:30:42.980Z,100756.44
2022-11-05T22:35:47.480Z,100757.78
2022-11-05T22:40:51.679Z,100758.63
2022-11-05T22:46:07.073Z,100754.06
2022-11-05T22:51:23.222Z,100748.22
2022-11-05T22:56:35.285Z,100752.50
2022-11-05T23:02:02.903Z,100747.47
2022-11-05T23:07:47.256Z,100747.38
2022-11-05T23:12:53.212Z,100746.41
2022-11-05T23:18:18.716Z,100764.13
2022-11-05T23:23:58.947Z,100758.44
2022-11-05T23:29:09.205Z,100757.78
2022-11-05T23:34:10.790Z,100757.94
2022-11-05T23:39:12.416Z,100758.25
2022-11-05T23:44:32.670Z,100753.28
2022-11-05T23:49:34.256Z,100764.06
2022-11-05T23:54:35.842Z,100761.31
2022-11-05T23:59:37.430Z,100772.84
